sensor_id;sensor_type;location;lat;lon;timestamp;P1;durP1;ratioP1;P2;durP2;ratioP2
21959;SDS011;11144;43.030;25.108;2023-07-02T00:00:04;7.90;;;6.13;;
21959;SDS011;11144;43.030;25.108;2023-07-02T00:01:41;9.60;;;6.30;;
21959;SDS011;11144;43.030;25.108;2023-07-02T00:03:15;7.70;;;6.10;;
21959;SDS011;11144;43.030;25.108;2023-07-02T00:04:50;7.97;;;6.63;;
21959;SDS011;11144;43.030;25.108;2023-07-02T00:06:23;8.70;;;6.60;;
21959;SDS011;11144;43.030;25.108;2023-07-02T00:07:57;8.15;;;7.03;;
21959;SDS011;11144;43.030;25.108;2023-07-02T00:09:30;6.40;;;5.80;;
21959;SDS011;11144;43.030;25.108;2023-07-02T00:11:02;10.52;;;6.80;;
21959;SDS011;11144;43.030;25.108;2023-07-02T00:12:36;9.90;;;6.22;;
21959;SDS011;11144;43.030;25.108;2023-07-02T00:14:09;8.82;;;6.22;;
21959;SDS011;11144;43.030;25.108;2023-07-02T00:15:42;8.75;;;6.35;;
21959;SDS011;11144;43.030;25.108;2023-07-02T00:17:15;8.82;;;6.95;;
21959;SDS011;11144;43.030;25.108;2023-07-02T00:18:47;9.00;;;6.82;;
21959;SDS011;11144;43.030;25.108;2023-07-02T00:20:25;9.45;;;6.25;;
21959;SDS011;11144;43.030;25.108;2023-07-02T00:21:58;6.75;;;5.75;;
21959;SDS011;11144;43.030;25.108;2023-07-02T00:23:32;9.20;;;6.72;;
21959;SDS011;11144;43.030;25.108;2023-07-02T00:25:05;7.55;;;5.88;;
21959;SDS011;11144;43.030;25.108;2023-07-02T00:26:38;7.82;;;6.10;;
21959;SDS011;11144;43.030;25.108;2023-07-02T00:28:15;7.85;;;6.90;;
21959;SDS011;11144;43.030;25.108;2023-07-02T00:29:49;8.32;;;6.10;;
21959;SDS011;11144;43.030;25.108;2023-07-02T00:31:22;7.82;;;5.78;;
21959;SDS011;11144;43.030;25.108;2023-07-02T00:32:56;8.18;;;6.80;;
21959;SDS011;11144;43.030;25.108;2023-07-02T00:34:29;6.70;;;6.07;;
21959;SDS011;11144;43.030;25.108;2023-07-02T00:36:03;8.82;;;6.53;;
21959;SDS011;11144;43.030;25.108;2023-07-02T00:37:37;8.85;;;6.00;;
21959;SDS011;11144;43.030;25.108;2023-07-02T00:39:09;11.10;;;7.18;;
21959;SDS011;11144;43.030;25.108;2023-07-02T00:40:43;8.85;;;6.68;;
21959;SDS011;11144;43.030;25.108;2023-07-02T00:42:17;12.27;;;6.88;;
21959;SDS011;11144;43.030;25.108;2023-07-02T00:43:51;8.18;;;6.82;;
21959;SDS011;11144;43.030;25.108;2023-07-02T00:45:26;9.30;;;7.00;;
21959;SDS011;11144;43.030;25.108;2023-07-02T00:46:59;10.73;;;6.82;;
21959;SDS011;11144;43.030;25.108;2023-07-02T00:48:31;8.05;;;5.35;;
21959;SDS011;11144;43.030;25.108;2023-07-02T00:50:06;7.43;;;6.45;;
21959;SDS011;11144;43.030;25.108;2023-07-02T00:51:42;8.23;;;6.28;;
21959;SDS011;11144;43.030;25.108;2023-07-02T00:53:16;9.73;;;6.82;;
21959;SDS011;11144;43.030;25.108;2023-07-02T00:54:49;10.10;;;6.75;;
21959;SDS011;11144;43.030;25.108;2023-07-02T00:56:23;8.30;;;7.07;;
21959;SDS011;11144;43.030;25.108;2023-07-02T00:57:57;8.85;;;7.07;;
21959;SDS011;11144;43.030;25.108;2023-07-02T00:59:31;7.10;;;6.38;;
21959;SDS011;11144;43.030;25.108;2023-07-02T01:01:07;8.85;;;6.53;;
21959;SDS011;11144;43.030;25.108;2023-07-02T01:02:41;6.97;;;6.22;;
21959;SDS011;11144;43.030;25.108;2023-07-02T01:04:16;7.72;;;5.93;;
21959;SDS011;11144;43.030;25.108;2023-07-02T01:05:50;10.18;;;6.90;;
21959;SDS011;11144;43.030;25.108;2023-07-02T01:07:25;11.13;;;7.03;;
21959;SDS011;11144;43.030;25.108;2023-07-02T01:08:59;9.52;;;7.07;;
21959;SDS011;11144;43.030;25.108;2023-07-02T01:10:33;8.88;;;7.97;;
21959;SDS011;11144;43.030;25.108;2023-07-02T01:12:07;9.82;;;7.50;;
21959;SDS011;11144;43.030;25.108;2023-07-02T01:13:44;7.95;;;7.15;;
21959;SDS011;11144;43.030;25.108;2023-07-02T01:15:16;7.47;;;6.75;;
21959;SDS011;11144;43.030;25.108;2023-07-02T01:16:50;7.88;;;6.47;;
21959;SDS011;11144;43.030;25.108;2023-07-02T01:18:24;8.80;;;7.30;;
21959;SDS011;11144;43.030;25.108;2023-07-02T01:19:59;8.95;;;6.47;;
21959;SDS011;11144;43.030;25.108;2023-07-02T01:21:31;7.13;;;6.40;;
21959;SDS011;11144;43.030;25.108;2023-07-02T01:23:05;9.13;;;7.25;;
21959;SDS011;11144;43.030;25.108;2023-07-02T01:24:39;7.75;;;6.63;;
21959;SDS011;11144;43.030;25.108;2023-07-02T01:26:13;10.73;;;6.43;;
21959;SDS011;11144;43.030;25.108;2023-07-02T01:27:46;8.68;;;7.05;;
21959;SDS011;11144;43.030;25.108;2023-07-02T01:29:20;9.32;;;7.00;;
21959;SDS011;11144;43.030;25.108;2023-07-02T01:30:52;10.82;;;7.72;;
21959;SDS011;11144;43.030;25.108;2023-07-02T01:32:25;7.95;;;7.15;;
21959;SDS011;11144;43.030;25.108;2023-07-02T01:33:59;9.23;;;7.45;;
21959;SDS011;11144;43.030;25.108;2023-07-02T01:35:33;10.95;;;7.13;;
21959;SDS011;11144;43.030;25.108;2023-07-02T01:37:06;8.80;;;7.25;;
21959;SDS011;11144;43.030;25.108;2023-07-02T01:38:41;8.25;;;7.38;;
21959;SDS011;11144;43.030;25.108;2023-07-02T01:40:14;8.40;;;7.53;;
21959;SDS011;11144;43.030;25.108;2023-07-02T01:41:49;12.43;;;7.55;;
21959;SDS011;11144;43.030;25.108;2023-07-02T01:43:22;9.85;;;8.27;;
21959;SDS011;11144;43.030;25.108;2023-07-02T01:44:56;9.93;;;6.97;;
21959;SDS011;11144;43.030;25.108;2023-07-02T01:46:29;8.82;;;6.53;;
21959;SDS011;11144;43.030;25.108;2023-07-02T01:48:03;9.30;;;7.28;;
21959;SDS011;11144;43.030;25.108;2023-07-02T01:49:36;8.00;;;7.20;;
21959;SDS011;11144;43.030;25.108;2023-07-02T01:51:11;10.05;;;7.60;;
21959;SDS011;11144;43.030;25.108;2023-07-02T01:52:45;8.82;;;7.30;;
21959;SDS011;11144;43.030;25.108;2023-07-02T01:54:18;10.38;;;7.43;;
21959;SDS011;11144;43.030;25.108;2023-07-02T01:55:51;10.25;;;7.50;;
21959;SDS011;11144;43.030;25.108;2023-07-02T01:57:25;10.68;;;8.10;;
21959;SDS011;11144;43.030;25.108;2023-07-02T01:58:57;9.00;;;7.32;;
21959;SDS011;11144;43.030;25.108;2023-07-02T02:00:30;14.43;;;7.70;;
21959;SDS011;11144;43.030;25.108;2023-07-02T02:02:03;8.43;;;7.30;;
21959;SDS011;11144;43.030;25.108;2023-07-02T02:03:40;10.70;;;7.85;;
21959;SDS011;11144;43.030;25.108;2023-07-02T02:05:13;8.27;;;7.25;;
21959;SDS011;11144;43.030;25.108;2023-07-02T02:06:48;13.40;;;7.63;;
21959;SDS011;11144;43.030;25.108;2023-07-02T02:08:21;9.60;;;8.13;;
21959;SDS011;11144;43.030;25.108;2023-07-02T02:09:54;10.75;;;7.35;;
21959;SDS011;11144;43.030;25.108;2023-07-02T02:11:26;9.45;;;7.68;;
21959;SDS011;11144;43.030;25.108;2023-07-02T02:13:00;9.15;;;7.65;;
21959;SDS011;11144;43.030;25.108;2023-07-02T02:14:33;12.00;;;7.63;;
21959;SDS011;11144;43.030;25.108;2023-07-02T02:16:05;9.10;;;6.82;;
21959;SDS011;11144;43.030;25.108;2023-07-02T02:17:39;9.00;;;7.82;;
21959;SDS011;11144;43.030;25.108;2023-07-02T02:19:12;8.98;;;7.65;;
21959;SDS011;11144;43.030;25.108;2023-07-02T02:20:46;8.88;;;7.65;;
21959;SDS011;11144;43.030;25.108;2023-07-02T02:22:21;13.02;;;8.38;;
21959;SDS011;11144;43.030;25.108;2023-07-02T02:23:53;8.50;;;7.60;;
21959;SDS011;11144;43.030;25.108;2023-07-02T02:25:28;9.10;;;7.90;;
21959;SDS011;11144;43.030;25.108;2023-07-02T02:27:01;9.13;;;6.93;;
21959;SDS011;11144;43.030;25.108;2023-07-02T02:28:34;8.85;;;7.50;;
21959;SDS011;11144;43.030;25.108;2023-07-02T02:30:08;9.43;;;7.88;;
21959;SDS011;11144;43.030;25.108;2023-07-02T02:31:40;11.00;;;7.97;;
21959;SDS011;11144;43.030;25.108;2023-07-02T02:33:15;9.95;;;8.13;;
21959;SDS011;11144;43.030;25.108;2023-07-02T02:34:49;8.93;;;8.02;;
21959;SDS011;11144;43.030;25.108;2023-07-02T02:36:22;11.07;;;7.35;;
21959;SDS011;11144;43.030;25.108;2023-07-02T02:37:57;9.45;;;7.90;;
21959;SDS011;11144;43.030;25.108;2023-07-02T02:39:34;11.52;;;8.32;;
21959;SDS011;11144;43.030;25.108;2023-07-02T02:41:07;9.52;;;7.60;;
21959;SDS011;11144;43.030;25.108;2023-07-02T02:42:45;8.32;;;7.32;;
21959;SDS011;11144;43.030;25.108;2023-07-02T02:44:18;9.25;;;7.50;;
21959;SDS011;11144;43.030;25.108;2023-07-02T02:45:51;8.18;;;7.10;;
21959;SDS011;11144;43.030;25.108;2023-07-02T02:47:24;10.18;;;8.40;;
21959;SDS011;11144;43.030;25.108;2023-07-02T02:48:57;9.15;;;7.93;;
21959;SDS011;11144;43.030;25.108;2023-07-02T02:50:30;11.10;;;7.30;;
21959;SDS011;11144;43.030;25.108;2023-07-02T02:52:03;9.52;;;7.68;;
21959;SDS011;11144;43.030;25.108;2023-07-02T02:53:38;9.52;;;7.55;;
21959;SDS011;11144;43.030;25.108;2023-07-02T02:55:11;8.68;;;7.78;;
21959;SDS011;11144;43.030;25.108;2023-07-02T02:56:45;11.13;;;7.68;;
21959;SDS011;11144;43.030;25.108;2023-07-02T02:58:17;10.32;;;8.02;;
21959;SDS011;11144;43.030;25.108;2023-07-02T02:59:50;8.90;;;7.47;;
21959;SDS011;11144;43.030;25.108;2023-07-02T03:01:23;9.07;;;8.02;;
21959;SDS011;11144;43.030;25.108;2023-07-02T03:03:02;10.07;;;7.75;;
21959;SDS011;11144;43.030;25.108;2023-07-02T03:04:40;9.05;;;7.57;;
21959;SDS011;11144;43.030;25.108;2023-07-02T03:06:16;9.23;;;7.78;;
21959;SDS011;11144;43.030;25.108;2023-07-02T03:07:49;12.90;;;8.27;;
21959;SDS011;11144;43.030;25.108;2023-07-02T03:09:24;9.15;;;8.25;;
21959;SDS011;11144;43.030;25.108;2023-07-02T03:10:56;10.57;;;7.82;;
21959;SDS011;11144;43.030;25.108;2023-07-02T03:12:30;11.48;;;8.20;;
21959;SDS011;11144;43.030;25.108;2023-07-02T03:14:03;8.68;;;7.28;;
21959;SDS011;11144;43.030;25.108;2023-07-02T03:15:36;11.32;;;7.43;;
21959;SDS011;11144;43.030;25.108;2023-07-02T03:17:09;10.23;;;8.75;;
21959;SDS011;11144;43.030;25.108;2023-07-02T03:18:43;8.65;;;7.55;;
21959;SDS011;11144;43.030;25.108;2023-07-02T03:20:16;12.23;;;8.77;;
21959;SDS011;11144;43.030;25.108;2023-07-02T03:21:49;9.15;;;8.10;;
21959;SDS011;11144;43.030;25.108;2023-07-02T03:23:21;13.82;;;7.97;;
21959;SDS011;11144;43.030;25.108;2023-07-02T03:24:56;12.73;;;8.25;;
21959;SDS011;11144;43.030;25.108;2023-07-02T03:26:29;10.85;;;7.97;;
21959;SDS011;11144;43.030;25.108;2023-07-02T03:28:02;10.50;;;8.00;;
21959;SDS011;11144;43.030;25.108;2023-07-02T03:29:35;11.20;;;8.63;;
21959;SDS011;11144;43.030;25.108;2023-07-02T03:31:09;11.35;;;7.95;;
21959;SDS011;11144;43.030;25.108;2023-07-02T03:32:42;9.68;;;7.95;;
21959;SDS011;11144;43.030;25.108;2023-07-02T03:34:15;8.15;;;7.35;;
21959;SDS011;11144;43.030;25.108;2023-07-02T03:35:48;14.98;;;9.10;;
21959;SDS011;11144;43.030;25.108;2023-07-02T03:37:22;8.10;;;7.25;;
21959;SDS011;11144;43.030;25.108;2023-07-02T03:38:55;8.25;;;7.25;;
21959;SDS011;11144;43.030;25.108;2023-07-02T03:40:29;9.65;;;7.95;;
21959;SDS011;11144;43.030;25.108;2023-07-02T03:42:04;13.13;;;8.88;;
21959;SDS011;11144;43.030;25.108;2023-07-02T03:43:38;14.65;;;8.65;;
21959;SDS011;11144;43.030;25.108;2023-07-02T03:45:12;10.10;;;8.10;;
21959;SDS011;11144;43.030;25.108;2023-07-02T03:46:45;10.43;;;8.60;;
21959;SDS011;11144;43.030;25.108;2023-07-02T03:48:17;11.55;;;9.57;;
21959;SDS011;11144;43.030;25.108;2023-07-02T03:49:50;12.00;;;8.82;;
21959;SDS011;11144;43.030;25.108;2023-07-02T03:51:23;11.90;;;9.73;;
21959;SDS011;11144;43.030;25.108;2023-07-02T03:52:56;12.65;;;10.55;;
21959;SDS011;11144;43.030;25.108;2023-07-02T03:54:28;13.63;;;9.82;;
21959;SDS011;11144;43.030;25.108;2023-07-02T03:56:03;14.32;;;9.65;;
21959;SDS011;11144;43.030;25.108;2023-07-02T03:57:37;11.48;;;10.32;;
21959;SDS011;11144;43.030;25.108;2023-07-02T03:59:09;12.45;;;10.50;;
21959;SDS011;11144;43.030;25.108;2023-07-02T04:00:42;12.68;;;10.40;;
21959;SDS011;11144;43.030;25.108;2023-07-02T04:02:15;14.13;;;9.90;;
21959;SDS011;11144;43.030;25.108;2023-07-02T04:03:49;16.85;;;11.77;;
21959;SDS011;11144;43.030;25.108;2023-07-02T04:05:23;14.18;;;10.95;;
21959;SDS011;11144;43.030;25.108;2023-07-02T04:06:56;14.05;;;11.23;;
21959;SDS011;11144;43.030;25.108;2023-07-02T04:08:29;13.75;;;10.73;;
21959;SDS011;11144;43.030;25.108;2023-07-02T04:10:02;18.17;;;11.10;;
21959;SDS011;11144;43.030;25.108;2023-07-02T04:11:37;16.60;;;11.30;;
21959;SDS011;11144;43.030;25.108;2023-07-02T04:13:11;14.15;;;10.60;;
21959;SDS011;11144;43.030;25.108;2023-07-02T04:14:44;11.77;;;9.93;;
21959;SDS011;11144;43.030;25.108;2023-07-02T04:16:16;14.32;;;10.20;;
21959;SDS011;11144;43.030;25.108;2023-07-02T04:17:50;12.65;;;9.63;;
21959;SDS011;11144;43.030;25.108;2023-07-02T04:19:22;11.25;;;8.52;;
21959;SDS011;11144;43.030;25.108;2023-07-02T04:20:55;9.05;;;7.97;;
21959;SDS011;11144;43.030;25.108;2023-07-02T04:22:28;11.25;;;8.25;;
21959;SDS011;11144;43.030;25.108;2023-07-02T04:24:01;9.30;;;8.30;;
21959;SDS011;11144;43.030;25.108;2023-07-02T04:25:35;11.25;;;7.95;;
21959;SDS011;11144;43.030;25.108;2023-07-02T04:27:29;8.93;;;7.88;;
21959;SDS011;11144;43.030;25.108;2023-07-02T04:29:22;11.00;;;7.97;;
21959;SDS011;11144;43.030;25.108;2023-07-02T04:30:55;9.10;;;8.15;;
21959;SDS011;11144;43.030;25.108;2023-07-02T04:32:28;9.82;;;8.27;;
21959;SDS011;11144;43.030;25.108;2023-07-02T04:34:02;10.07;;;8.27;;
21959;SDS011;11144;43.030;25.108;2023-07-02T04:35:37;14.52;;;9.68;;
21959;SDS011;11144;43.030;25.108;2023-07-02T04:37:10;13.20;;;8.68;;
21959;SDS011;11144;43.030;25.108;2023-07-02T04:38:43;9.48;;;8.07;;
21959;SDS011;11144;43.030;25.108;2023-07-02T04:40:17;12.38;;;8.65;;
21959;SDS011;11144;43.030;25.108;2023-07-02T04:41:50;14.98;;;9.00;;
21959;SDS011;11144;43.030;25.108;2023-07-02T04:43:25;9.73;;;8.13;;
21959;SDS011;11144;43.030;25.108;2023-07-02T04:45:00;10.63;;;8.50;;
21959;SDS011;11144;43.030;25.108;2023-07-02T04:46:35;8.68;;;7.82;;
21959;SDS011;11144;43.030;25.108;2023-07-02T04:48:07;9.07;;;7.85;;
21959;SDS011;11144;43.030;25.108;2023-07-02T04:49:40;8.48;;;6.75;;
21959;SDS011;11144;43.030;25.108;2023-07-02T04:51:14;9.55;;;7.97;;
21959;SDS011;11144;43.030;25.108;2023-07-02T04:52:46;8.15;;;7.32;;
21959;SDS011;11144;43.030;25.108;2023-07-02T04:54:19;16.08;;;7.93;;
21959;SDS011;11144;43.030;25.108;2023-07-02T04:55:53;8.77;;;7.65;;
21959;SDS011;11144;43.030;25.108;2023-07-02T04:57:28;8.02;;;7.22;;
21959;SDS011;11144;43.030;25.108;2023-07-02T04:59:02;10.20;;;7.78;;
21959;SDS011;11144;43.030;25.108;2023-07-02T05:00:36;9.15;;;7.70;;
21959;SDS011;11144;43.030;25.108;2023-07-02T05:02:09;11.48;;;7.72;;
21959;SDS011;11144;43.030;25.108;2023-07-02T05:03:42;8.70;;;7.20;;
21959;SDS011;11144;43.030;25.108;2023-07-02T05:05:16;9.25;;;7.45;;
21959;SDS011;11144;43.030;25.108;2023-07-02T05:06:48;9.00;;;7.95;;
21959;SDS011;11144;43.030;25.108;2023-07-02T05:08:22;8.73;;;7.43;;
21959;SDS011;11144;43.030;25.108;2023-07-02T05:09:55;8.73;;;7.55;;
21959;SDS011;11144;43.030;25.108;2023-07-02T05:11:27;9.80;;;7.50;;
21959;SDS011;11144;43.030;25.108;2023-07-02T05:13:01;10.68;;;7.50;;
21959;SDS011;11144;43.030;25.108;2023-07-02T05:14:34;8.85;;;8.05;;
21959;SDS011;11144;43.030;25.108;2023-07-02T05:16:07;10.20;;;7.90;;
21959;SDS011;11144;43.030;25.108;2023-07-02T05:17:40;10.13;;;7.93;;
21959;SDS011;11144;43.030;25.108;2023-07-02T05:19:13;8.80;;;7.90;;
21959;SDS011;11144;43.030;25.108;2023-07-02T05:20:46;8.60;;;7.60;;
21959;SDS011;11144;43.030;25.108;2023-07-02T05:22:19;10.10;;;8.15;;
21959;SDS011;11144;43.030;25.108;2023-07-02T05:23:53;8.75;;;7.85;;
21959;SDS011;11144;43.030;25.108;2023-07-02T05:25:26;9.18;;;7.57;;
21959;SDS011;11144;43.030;25.108;2023-07-02T05:26:59;9.18;;;7.78;;
21959;SDS011;11144;43.030;25.108;2023-07-02T05:28:32;8.80;;;7.90;;
21959;SDS011;11144;43.030;25.108;2023-07-02T05:30:07;8.88;;;7.38;;
21959;SDS011;11144;43.030;25.108;2023-07-02T05:31:41;11.15;;;7.68;;
21959;SDS011;11144;43.030;25.108;2023-07-02T05:33:13;9.00;;;8.10;;
21959;SDS011;11144;43.030;25.108;2023-07-02T05:34:46;11.05;;;7.47;;
21959;SDS011;11144;43.030;25.108;2023-07-02T05:36:20;12.07;;;7.97;;
21959;SDS011;11144;43.030;25.108;2023-07-02T05:37:53;9.20;;;7.50;;
21959;SDS011;11144;43.030;25.108;2023-07-02T05:39:25;8.13;;;6.68;;
21959;SDS011;11144;43.030;25.108;2023-07-02T05:40:58;12.15;;;8.10;;
21959;SDS011;11144;43.030;25.108;2023-07-02T05:42:32;10.18;;;7.82;;
21959;SDS011;11144;43.030;25.108;2023-07-02T05:44:05;8.75;;;7.85;;
21959;SDS011;11144;43.030;25.108;2023-07-02T05:45:39;9.23;;;7.53;;
21959;SDS011;11144;43.030;25.108;2023-07-02T05:47:13;9.35;;;8.10;;
21959;SDS011;11144;43.030;25.108;2023-07-02T05:48:46;11.10;;;7.68;;
21959;SDS011;11144;43.030;25.108;2023-07-02T05:50:18;12.88;;;8.43;;
21959;SDS011;11144;43.030;25.108;2023-07-02T05:51:51;7.95;;;7.05;;
21959;SDS011;11144;43.030;25.108;2023-07-02T05:53:24;15.52;;;8.57;;
21959;SDS011;11144;43.030;25.108;2023-07-02T05:54:57;8.18;;;7.25;;
21959;SDS011;11144;43.030;25.108;2023-07-02T05:56:30;8.52;;;7.53;;
21959;SDS011;11144;43.030;25.108;2023-07-02T05:58:03;8.07;;;7.25;;
21959;SDS011;11144;43.030;25.108;2023-07-02T05:59:37;12.95;;;7.55;;
21959;SDS011;11144;43.030;25.108;2023-07-02T06:01:12;8.15;;;7.35;;
21959;SDS011;11144;43.030;25.108;2023-07-02T06:02:46;8.27;;;6.90;;
21959;SDS011;11144;43.030;25.108;2023-07-02T06:04:20;8.32;;;7.15;;
21959;SDS011;11144;43.030;25.108;2023-07-02T06:05:52;8.00;;;7.20;;
21959;SDS011;11144;43.030;25.108;2023-07-02T06:07:26;8.40;;;6.45;;
21959;SDS011;11144;43.030;25.108;2023-07-02T06:08:59;7.88;;;7.03;;
21959;SDS011;11144;43.030;25.108;2023-07-02T06:10:32;15.40;;;7.32;;
21959;SDS011;11144;43.030;25.108;2023-07-02T06:12:05;10.50;;;7.15;;
21959;SDS011;11144;43.030;25.108;2023-07-02T06:13:38;11.65;;;8.73;;
21959;SDS011;11144;43.030;25.108;2023-07-02T06:15:11;7.68;;;6.97;;
21959;SDS011;11144;43.030;25.108;2023-07-02T06:16:45;9.65;;;7.00;;
21959;SDS011;11144;43.030;25.108;2023-07-02T06:18:19;8.00;;;5.93;;
21959;SDS011;11144;43.030;25.108;2023-07-02T06:19:52;8.70;;;6.63;;
21959;SDS011;11144;43.030;25.108;2023-07-02T06:21:25;11.55;;;6.90;;
21959;SDS011;11144;43.030;25.108;2023-07-02T06:23:01;9.45;;;7.00;;
21959;SDS011;11144;43.030;25.108;2023-07-02T06:24:34;12.02;;;8.35;;
21959;SDS011;11144;43.030;25.108;2023-07-02T06:26:07;11.27;;;6.70;;
21959;SDS011;11144;43.030;25.108;2023-07-02T06:27:41;8.15;;;7.18;;
21959;SDS011;11144;43.030;25.108;2023-07-02T06:29:14;7.45;;;6.70;;
21959;SDS011;11144;43.030;25.108;2023-07-02T06:30:47;8.68;;;7.05;;
21959;SDS011;11144;43.030;25.108;2023-07-02T06:32:22;8.48;;;7.40;;
21959;SDS011;11144;43.030;25.108;2023-07-02T06:33:55;8.05;;;7.25;;
21959;SDS011;11144;43.030;25.108;2023-07-02T06:35:29;12.93;;;7.32;;
21959;SDS011;11144;43.030;25.108;2023-07-02T06:37:02;10.57;;;7.10;;
21959;SDS011;11144;43.030;25.108;2023-07-02T06:38:36;7.30;;;6.60;;
21959;SDS011;11144;43.030;25.108;2023-07-02T06:40:09;9.93;;;7.28;;
21959;SDS011;11144;43.030;25.108;2023-07-02T06:41:43;11.52;;;7.03;;
21959;SDS011;11144;43.030;25.108;2023-07-02T06:43:16;8.73;;;7.20;;
21959;SDS011;11144;43.030;25.108;2023-07-02T06:44:50;9.50;;;7.75;;
21959;SDS011;11144;43.030;25.108;2023-07-02T06:46:24;8.73;;;6.93;;
21959;SDS011;11144;43.030;25.108;2023-07-02T06:47:58;12.48;;;7.70;;
21959;SDS011;11144;43.030;25.108;2023-07-02T06:49:31;15.82;;;7.68;;
21959;SDS011;11144;43.030;25.108;2023-07-02T06:51:04;6.90;;;5.97;;
21959;SDS011;11144;43.030;25.108;2023-07-02T06:52:38;8.05;;;6.85;;
21959;SDS011;11144;43.030;25.108;2023-07-02T06:54:11;7.63;;;6.45;;
21959;SDS011;11144;43.030;25.108;2023-07-02T06:55:45;8.18;;;6.18;;
21959;SDS011;11144;43.030;25.108;2023-07-02T06:57:20;14.80;;;6.60;;
21959;SDS011;11144;43.030;25.108;2023-07-02T06:58:55;7.38;;;6.45;;
21959;SDS011;11144;43.030;25.108;2023-07-02T07:00:30;7.10;;;6.05;;
21959;SDS011;11144;43.030;25.108;2023-07-02T07:02:03;7.68;;;6.78;;
21959;SDS011;11144;43.030;25.108;2023-07-02T07:03:38;10.60;;;7.13;;
21959;SDS011;11144;43.030;25.108;2023-07-02T07:05:12;7.85;;;7.03;;
21959;SDS011;11144;43.030;25.108;2023-07-02T07:06:46;6.93;;;5.88;;
21959;SDS011;11144;43.030;25.108;2023-07-02T07:08:19;7.63;;;6.65;;
21959;SDS011;11144;43.030;25.108;2023-07-02T07:09:53;8.63;;;6.30;;
21959;SDS011;11144;43.030;25.108;2023-07-02T07:11:26;9.43;;;6.43;;
21959;SDS011;11144;43.030;25.108;2023-07-02T07:13:00;6.22;;;5.63;;
21959;SDS011;11144;43.030;25.108;2023-07-02T07:14:33;7.03;;;6.35;;
21959;SDS011;11144;43.030;25.108;2023-07-02T07:16:06;7.72;;;6.15;;
21959;SDS011;11144;43.030;25.108;2023-07-02T07:17:39;7.72;;;6.25;;
21959;SDS011;11144;43.030;25.108;2023-07-02T07:19:14;8.65;;;6.82;;
21959;SDS011;11144;43.030;25.108;2023-07-02T07:20:47;7.00;;;6.32;;
21959;SDS011;11144;43.030;25.108;2023-07-02T07:22:21;7.53;;;6.72;;
21959;SDS011;11144;43.030;25.108;2023-07-02T07:23:54;8.07;;;6.38;;
21959;SDS011;11144;43.030;25.108;2023-07-02T07:25:28;7.30;;;5.78;;
21959;SDS011;11144;43.030;25.108;2023-07-02T07:27:01;7.20;;;5.97;;
21959;SDS011;11144;43.030;25.108;2023-07-02T07:28:34;7.22;;;5.25;;
21959;SDS011;11144;43.030;25.108;2023-07-02T07:30:08;7.35;;;6.30;;
21959;SDS011;11144;43.030;25.108;2023-07-02T07:31:42;6.30;;;5.47;;
21959;SDS011;11144;43.030;25.108;2023-07-02T07:33:16;11.32;;;5.85;;
21959;SDS011;11144;43.030;25.108;2023-07-02T07:34:51;6.20;;;5.60;;
21959;SDS011;11144;43.030;25.108;2023-07-02T07:36:24;7.82;;;5.75;;
21959;SDS011;11144;43.030;25.108;2023-07-02T07:37:57;6.65;;;6.05;;
21959;SDS011;11144;43.030;25.108;2023-07-02T07:39:29;7.65;;;6.40;;
21959;SDS011;11144;43.030;25.108;2023-07-02T07:41:03;6.70;;;6.03;;
21959;SDS011;11144;43.030;25.108;2023-07-02T07:42:36;10.77;;;6.07;;
21959;SDS011;11144;43.030;25.108;2023-07-02T07:44:10;7.05;;;5.57;;
21959;SDS011;11144;43.030;25.108;2023-07-02T07:45:43;7.22;;;6.40;;
21959;SDS011;11144;43.030;25.108;2023-07-02T07:47:16;9.82;;;5.85;;
21959;SDS011;11144;43.030;25.108;2023-07-02T07:48:50;9.35;;;6.93;;
21959;SDS011;11144;43.030;25.108;2023-07-02T07:50:24;6.97;;;6.28;;
21959;SDS011;11144;43.030;25.108;2023-07-02T07:51:58;8.20;;;7.30;;
21959;SDS011;11144;43.030;25.108;2023-07-02T07:53:31;8.07;;;6.75;;
21959;SDS011;11144;43.030;25.108;2023-07-02T07:55:05;10.13;;;7.85;;
21959;SDS011;11144;43.030;25.108;2023-07-02T07:56:39;8.00;;;7.20;;
21959;SDS011;11144;43.030;25.108;2023-07-02T07:58:12;9.35;;;8.07;;
21959;SDS011;11144;43.030;25.108;2023-07-02T07:59:45;10.05;;;8.55;;
21959;SDS011;11144;43.030;25.108;2023-07-02T08:01:18;10.30;;;8.35;;
21959;SDS011;11144;43.030;25.108;2023-07-02T08:02:52;9.45;;;8.35;;
21959;SDS011;11144;43.030;25.108;2023-07-02T08:04:27;12.23;;;8.65;;
21959;SDS011;11144;43.030;25.108;2023-07-02T08:06:02;7.85;;;7.05;;
21959;SDS011;11144;43.030;25.108;2023-07-02T08:07:35;10.48;;;8.02;;
21959;SDS011;11144;43.030;25.108;2023-07-02T08:09:09;8.68;;;7.88;;
21959;SDS011;11144;43.030;25.108;2023-07-02T08:10:42;10.73;;;8.23;;
21959;SDS011;11144;43.030;25.108;2023-07-02T08:12:18;13.73;;;8.30;;
21959;SDS011;11144;43.030;25.108;2023-07-02T08:13:51;9.20;;;8.18;;
21959;SDS011;11144;43.030;25.108;2023-07-02T08:15:25;9.52;;;8.07;;
21959;SDS011;11144;43.030;25.108;2023-07-02T08:16:58;8.60;;;7.70;;
21959;SDS011;11144;43.030;25.108;2023-07-02T08:18:32;8.35;;;7.25;;
21959;SDS011;11144;43.030;25.108;2023-07-02T08:20:05;8.23;;;7.43;;
21959;SDS011;11144;43.030;25.108;2023-07-02T08:21:42;10.35;;;8.82;;
21959;SDS011;11144;43.030;25.108;2023-07-02T08:23:15;12.10;;;8.70;;
21959;SDS011;11144;43.030;25.108;2023-07-02T08:24:49;9.80;;;7.88;;
21959;SDS011;11144;43.030;25.108;2023-07-02T08:26:21;8.93;;;7.60;;
21959;SDS011;11144;43.030;25.108;2023-07-02T08:27:54;10.10;;;8.10;;
21959;SDS011;11144;43.030;25.108;2023-07-02T08:29:28;12.35;;;8.38;;
21959;SDS011;11144;43.030;25.108;2023-07-02T08:31:01;8.68;;;7.78;;
21959;SDS011;11144;43.030;25.108;2023-07-02T08:32:35;10.68;;;8.07;;
21959;SDS011;11144;43.030;25.108;2023-07-02T08:34:08;10.07;;;8.10;;
21959;SDS011;11144;43.030;25.108;2023-07-02T08:35:41;9.05;;;8.00;;
21959;SDS011;11144;43.030;25.108;2023-07-02T08:37:16;10.23;;;7.85;;
21959;SDS011;11144;43.030;25.108;2023-07-02T08:38:50;8.15;;;7.40;;
21959;SDS011;11144;43.030;25.108;2023-07-02T08:40:23;8.57;;;7.78;;
21959;SDS011;11144;43.030;25.108;2023-07-02T08:41:56;12.18;;;7.65;;
21959;SDS011;11144;43.030;25.108;2023-07-02T08:43:30;13.07;;;8.77;;
21959;SDS011;11144;43.030;25.108;2023-07-02T08:45:04;9.60;;;8.70;;
21959;SDS011;11144;43.030;25.108;2023-07-02T08:46:38;9.38;;;8.35;;
21959;SDS011;11144;43.030;25.108;2023-07-02T08:48:12;15.70;;;9.25;;
21959;SDS011;11144;43.030;25.108;2023-07-02T08:49:47;11.82;;;8.40;;
21959;SDS011;11144;43.030;25.108;2023-07-02T08:51:21;11.05;;;8.23;;
21959;SDS011;11144;43.030;25.108;2023-07-02T08:52:55;8.48;;;7.55;;
21959;SDS011;11144;43.030;25.108;2023-07-02T08:54:29;8.90;;;7.53;;
21959;SDS011;11144;43.030;25.108;2023-07-02T08:56:02;11.88;;;8.13;;
21959;SDS011;11144;43.030;25.108;2023-07-02T08:57:36;9.52;;;7.90;;
21959;SDS011;11144;43.030;25.108;2023-07-02T08:59:09;8.75;;;7.72;;
21959;SDS011;11144;43.030;25.108;2023-07-02T09:00:52;11.90;;;8.15;;
21959;SDS011;11144;43.030;25.108;2023-07-02T09:02:37;10.40;;;7.78;;
21959;SDS011;11144;43.030;25.108;2023-07-02T09:04:14;10.18;;;7.95;;
21959;SDS011;11144;43.030;25.108;2023-07-02T09:05:48;10.43;;;8.43;;
21959;SDS011;11144;43.030;25.108;2023-07-02T09:07:23;9.82;;;7.97;;
21959;SDS011;11144;43.030;25.108;2023-07-02T09:09:04;11.00;;;7.70;;
21959;SDS011;11144;43.030;25.108;2023-07-02T09:10:38;10.15;;;8.50;;
21959;SDS011;11144;43.030;25.108;2023-07-02T09:12:21;10.82;;;8.57;;